createdAt,value
2022-11-04T00:01:52.177Z,16.40
2022-11-04T00:04:21.702Z,14.20
2022-11-04T00:06:48.717Z,15.55
2022-11-04T00:09:21.186Z,14.52
2022-11-04T00:12:06.906Z,23.48
2022-11-04T00:14:34.289Z,18.30
2022-11-04T00:17:19.829Z,14.18
2022-11-04T00:20:13.120Z,21.67
2022-11-04T00:23:01.623Z,17.17
2022-11-04T00:25:47.012Z,18.33
2022-11-04T00:28:34.982Z,16.65
2022-11-04T00:31:22.619Z,16.98
2022-11-04T00:33:50.617Z,20.63
2022-11-04T00:36:17.777Z,17.15
2022-11-04T00:38:44.691Z,15.35
2022-11-04T00:41:27.056Z,18.25
2022-11-04T00:43:58.723Z,15.98
2022-11-04T00:46:26.426Z,16.60
2022-11-04T00:48:53.229Z,17.65
2022-11-04T00:51:21.395Z,17.75
2022-11-04T00:53:48.616Z,14.02
2022-11-04T00:56:15.200Z,18.92
2022-11-04T00:58:41.976Z,13.52
2022-11-04T01:01:17.576Z,19.63
2022-11-04T01:03:48.918Z,15.48
2022-11-04T01:06:16.344Z,14.60
2022-11-04T01:08:42.971Z,14.65
2022-11-04T01:11:10.681Z,17.38
2022-11-04T01:13:38.373Z,22.42
2022-11-04T01:16:08.014Z,20.33
2022-11-04T01:18:35.044Z,18.40
2022-11-04T01:21:03.265Z,15.93
2022-11-04T01:23:29.995Z,17.30
2022-11-04T01:25:57.001Z,19.58
2022-11-04T01:28:23.699Z,21.77
2022-11-04T01:30:50.450Z,23.85
2022-11-04T01:33:17.305Z,22.42
2022-11-04T01:35:44.078Z,19.00
2022-11-04T01:38:11.264Z,18.33
2022-11-04T01:40:39.661Z,21.48
2022-11-04T01:43:18.216Z,18.83
2022-11-04T01:45:49.026Z,23.25
2022-11-04T01:48:26.905Z,18.52
2022-11-04T01:50:54.881Z,16.55
2022-11-04T01:53:39.330Z,21.52
2022-11-04T01:56:12.212Z,21.67
2022-11-04T01:58:45.132Z,22.63
2022-11-04T02:01:12.588Z,19.52
2022-11-04T02:03:51.757Z,17.98
2022-11-04T02:06:21.160Z,20.75
2022-11-04T02:08:49.383Z,23.08
2022-11-04T02:11:36.477Z,23.33
2022-11-04T02:14:03.183Z,18.50
2022-11-04T02:17:01.558Z,21.35
2022-11-04T02:19:46.990Z,18.83
2022-11-04T02:22:50.627Z,23.13
2022-11-04T02:25:31.731Z,22.95
2022-11-04T02:28:08.774Z,20.85
2022-11-04T02:31:00.448Z,18.83
2022-11-04T02:34:09.593Z,19.23
2022-11-04T02:36:52.600Z,22.88
2022-11-04T02:39:39.238Z,23.20
2022-11-04T02:42:14.752Z,21.88
2022-11-04T02:44:51.821Z,21.58
2022-11-04T02:47:23.965Z,19.38
2022-11-04T02:49:59.200Z,18.45
2022-11-04T02:52:31.062Z,24.23
2022-11-04T02:55:10.445Z,19.27
2022-11-04T02:57:40.225Z,23.52
2022-11-04T03:00:13.325Z,21.83
2022-11-04T03:02:51.156Z,23.73
2022-11-04T03:05:22.320Z,20.13
2022-11-04T03:07:51.451Z,21.95
2022-11-04T03:10:28.263Z,22.58
2022-11-04T03:13:22.664Z,22.92
2022-11-04T03:16:01.255Z,20.25
2022-11-04T03:18:40.975Z,22.67
2022-11-04T03:21:11.195Z,23.17
2022-11-04T03:26:24.048Z,23.13
2022-11-04T03:29:10.202Z,23.60
2022-11-04T03:31:46.870Z,23.63
2022-11-04T03:34:13.583Z,22.55
2022-11-04T03:36:40.466Z,22.40
2022-11-04T03:39:07.382Z,19.63
2022-11-04T03:41:48.896Z,24.63
2022-11-04T03:44:15.578Z,16.58
2022-11-04T03:46:42.537Z,17.83
2022-11-04T03:49:09.835Z,21.15
2022-11-04T03:51:36.505Z,22.65
2022-11-04T03:54:04.153Z,20.67
2022-11-04T03:57:09.475Z,20.25
2022-11-04T04:00:03.201Z,28.17
2022-11-04T04:02:39.734Z,26.25
2022-11-04T04:05:21.359Z,25.45
2022-11-04T04:08:10.715Z,23.10
2022-11-04T04:11:00.531Z,23.10
2022-11-04T04:14:01.109Z,25.13
2022-11-04T04:16:33.467Z,25.45
2022-11-04T04:19:16.247Z,26.00
2022-11-04T04:21:58.984Z,30.83
2022-11-04T04:24:49.584Z,26.35
2022-11-04T04:27:32.116Z,23.95
2022-11-04T04:30:04.300Z,28.85
2022-11-04T04:32:36.328Z,25.38
2022-11-04T04:35:21.885Z,29.00
2022-11-04T04:37:49.086Z,24.58
2022-11-04T04:40:37.928Z,30.48
2022-11-04T04:43:23.505Z,27.17
2022-11-04T04:45:52.758Z,28.17
2022-11-04T04:48:19.665Z,23.27
2022-11-04T04:50:50.674Z,31.35
2022-11-04T04:53:17.286Z,23.88
2022-11-04T04:55:43.876Z,24.63
2022-11-04T04:58:10.663Z,25.13
2022-11-04T05:00:37.376Z,21.08
2022-11-04T05:03:04.042Z,32.10
2022-11-04T05:05:30.680Z,22.80
2022-11-04T05:08:08.178Z,27.27
2022-11-04T05:10:35.146Z,21.75
2022-11-04T05:13:37.719Z,25.25
2022-11-04T05:16:08.004Z,25.27
2022-11-04T05:21:10.709Z,27.92
2022-11-04T05:23:37.800Z,27.73
2022-11-04T05:26:04.834Z,24.48
2022-11-04T05:28:31.792Z,24.50
2022-11-04T05:31:02.579Z,29.10
2022-11-04T05:33:29.207Z,33.97
2022-11-04T05:36:04.927Z,33.75
2022-11-04T05:38:31.513Z,33.05
2022-11-04T05:40:58.498Z,31.73
2022-11-04T05:43:25.067Z,30.38
2022-11-04T05:45:51.726Z,28.23
2022-11-04T05:48:18.359Z,33.97
2022-11-04T05:50:44.941Z,29.10
2022-11-04T05:53:11.992Z,31.67
2022-11-04T05:55:38.815Z,36.78
2022-11-04T05:58:05.733Z,39.38
2022-11-04T06:00:32.658Z,27.38
2022-11-04T06:02:59.358Z,34.95
2022-11-04T06:05:27.200Z,32.70
2022-11-04T06:07:54.336Z,36.10
2022-11-04T06:10:21.195Z,27.35
2022-11-04T06:12:47.961Z,26.70
2022-11-04T06:15:14.721Z,30.58
2022-11-04T06:17:41.429Z,29.73
2022-11-04T06:20:08.645Z,27.25
2022-11-04T06:22:35.280Z,27.38
2022-11-04T06:25:02.008Z,28.38
2022-11-04T06:27:28.648Z,30.02
2022-11-04T06:29:55.384Z,27.73
2022-11-04T06:32:21.994Z,26.23
2022-11-04T06:34:48.600Z,26.20
2022-11-04T06:37:15.285Z,32.10
2022-11-04T06:39:41.920Z,31.20
2022-11-04T06:42:08.732Z,31.77
2022-11-04T06:44:35.543Z,30.88
2022-11-04T06:47:02.792Z,30.35
2022-11-04T06:49:29.397Z,26.70
2022-11-04T06:51:55.990Z,25.25
2022-11-04T06:54:22.691Z,25.17
2022-11-04T06:56:49.719Z,30.30
2022-11-04T06:59:19.066Z,22.15
2022-11-04T07:01:46.811Z,25.53
2022-11-04T07:04:13.685Z,29.40
2022-11-04T07:06:44.426Z,35.90
2022-11-04T07:09:14.192Z,30.83
2022-11-04T07:11:42.186Z,28.67
2022-11-04T07:14:09.816Z,25.23
2022-11-04T07:16:36.924Z,29.17
2022-11-04T07:19:04.444Z,24.02
2022-11-04T07:21:31.626Z,27.20
2022-11-04T07:23:58.454Z,28.10
2022-11-04T07:26:25.138Z,25.98
2022-11-04T07:28:51.839Z,26.70
2022-11-04T07:31:19.019Z,28.00
2022-11-04T07:33:50.115Z,28.40
2022-11-04T07:36:17.683Z,28.73
2022-11-04T07:38:44.668Z,22.73
2022-11-04T07:41:12.473Z,26.55
2022-11-04T07:43:39.123Z,27.00
2022-11-04T07:46:09.471Z,28.45
2022-11-04T07:48:36.895Z,27.48
2022-11-04T07:51:05.347Z,28.23
2022-11-04T07:53:32.897Z,28.60
2022-11-04T07:56:07.616Z,25.10
2022-11-04T07:58:34.951Z,28.63
2022-11-04T08:01:07.979Z,27.40
2022-11-04T08:03:36.808Z,23.17
2022-11-04T08:06:05.467Z,27.25
2022-11-04T08:08:32.420Z,27.45
2022-11-04T08:11:12.816Z,32.00
2022-11-04T08:13:42.867Z,25.40
2022-11-04T08:16:14.436Z,30.50
2022-11-04T08:18:42.202Z,22.90
2022-11-04T08:21:09.667Z,27.55
2022-11-04T08:23:36.580Z,20.15
2022-11-04T08:26:09.073Z,24.92
2022-11-04T08:28:35.775Z,27.42
2022-11-04T08:31:09.839Z,25.00
2022-11-04T08:33:36.893Z,23.63
2022-11-04T08:36:07.733Z,22.45
2022-11-04T08:38:34.592Z,24.00
2022-11-04T08:41:03.969Z,26.83
2022-11-04T08:43:31.104Z,25.20
2022-11-04T08:45:58.420Z,25.90
2022-11-04T08:48:25.272Z,28.65
2022-11-04T08:50:56.912Z,23.10
2022-11-04T08:53:23.577Z,23.92
2022-11-04T08:55:51.221Z,24.80
2022-11-04T08:58:20.776Z,27.95
2022-11-04T09:00:47.433Z,24.23
2022-11-04T09:03:14.103Z,24.73
2022-11-04T09:05:45.731Z,28.45
2022-11-04T09:08:13.248Z,26.10
2022-11-04T09:10:44.825Z,22.95
2022-11-04T09:13:12.505Z,25.77
2022-11-04T09:15:39.911Z,24.45
2022-11-04T09:18:06.662Z,22.08
2022-11-04T09:20:34.333Z,25.20
2022-11-04T09:23:00.948Z,26.02
2022-11-04T09:25:27.653Z,27.35
2022-11-04T09:27:54.299Z,25.30
2022-11-04T09:30:21.495Z,23.77
2022-11-04T09:32:52.596Z,20.38
2022-11-04T09:35:19.859Z,21.95
2022-11-04T09:37:47.060Z,24.25
2022-11-04T09:40:22.968Z,26.40
2022-11-04T09:43:19.818Z,21.05
2022-11-04T09:45:46.718Z,22.58
2022-11-04T09:48:25.476Z,22.92
2022-11-04T09:50:56.639Z,21.70
2022-11-04T09:53:39.352Z,22.95
2022-11-04T09:56:22.216Z,17.30
2022-11-04T09:58:50.538Z,22.13
2022-11-04T10:01:37.164Z,21.08
2022-11-04T10:04:34.612Z,23.77
2022-11-04T10:07:30.622Z,19.02
2022-11-04T10:10:25.190Z,17.70
2022-11-04T10:13:14.249Z,22.85
2022-11-04T10:15:55.075Z,19.58
2022-11-04T10:18:46.436Z,21.98
2022-11-04T10:21:26.103Z,21.98
2022-11-04T10:24:07.568Z,23.30
2022-11-04T10:26:57.453Z,21.42
2022-11-04T10:29:33.929Z,19.02
2022-11-04T10:32:04.783Z,18.10
2022-11-04T10:34:43.694Z,20.65
2022-11-04T10:37:12.769Z,16.23
2022-11-04T10:39:45.845Z,15.23
2022-11-04T10:42:16.295Z,12.18
2022-11-04T10:44:44.931Z,12.85
2022-11-04T10:47:31.406Z,11.50
2022-11-04T10:50:29.423Z,13.93
2022-11-04T10:53:13.655Z,11.63
2022-11-04T10:55:59.755Z,11.38
2022-11-04T10:58:31.461Z,11.48
2022-11-04T11:00:59.437Z,8.32
2022-11-04T11:03:30.540Z,10.00
2022-11-04T11:06:11.441Z,9.73
2022-11-04T11:08:38.394Z,10.93
2022-11-04T11:11:07.869Z,11.35
2022-11-04T11:13:37.971Z,12.38
2022-11-04T11:16:12.933Z,9.95
2022-11-04T11:18:41.676Z,11.73
2022-11-04T11:21:21.264Z,8.48
2022-11-04T11:23:51.012Z,8.82
2022-11-04T11:26:19.817Z,9.63
2022-11-04T11:28:58.363Z,11.80
2022-11-04T11:31:26.780Z,10.45
2022-11-04T11:33:58.096Z,11.55
2022-11-04T11:36:31.599Z,10.70
2022-11-04T11:39:18.428Z,11.60
2022-11-04T11:41:59.548Z,10.80
2022-11-04T11:44:31.818Z,10.38
2022-11-04T11:47:05.083Z,10.63
2022-11-04T11:49:37.083Z,10.88
2022-11-04T11:52:32.769Z,11.23
2022-11-04T11:55:20.392Z,12.75
2022-11-04T12:01:16.605Z,11.07
2022-11-04T12:09:46.633Z,9.40
2022-11-04T12:12:37.432Z,11.23
2022-11-04T12:15:44.054Z,10.80
2022-11-04T12:18:45.606Z,12.68
2022-11-04T12:21:21.577Z,9.75
2022-11-04T12:23:57.905Z,10.38
2022-11-04T12:26:53.962Z,10.55
2022-11-04T12:29:40.948Z,13.15
2022-11-04T12:32:14.604Z,12.88
2022-11-04T12:35:16.823Z,12.32
2022-11-04T12:38:24.505Z,14.35
2022-11-04T12:44:33.352Z,16.25
2022-11-04T12:47:02.783Z,21.67
2022-11-04T12:49:58.855Z,19.77
2022-11-04T12:52:40.762Z,14.45
2022-11-04T12:55:22.638Z,15.43
2022-11-04T12:58:12.195Z,18.08
2022-11-04T13:00:40.496Z,15.68
2022-11-04T13:03:20.544Z,17.92
2022-11-04T13:06:01.993Z,13.55
2022-11-04T13:08:35.592Z,16.33
2022-11-04T13:11:29.968Z,19.05
2022-11-04T13:14:19.431Z,19.17
2022-11-04T13:16:50.012Z,15.05
2022-11-04T13:19:32.009Z,18.15
2022-11-04T13:22:07.161Z,16.17
2022-11-04T13:24:37.911Z,19.80
2022-11-04T13:27:17.784Z,16.05
2022-11-04T13:29:45.395Z,19.10
2022-11-04T13:32:26.228Z,16.13
2022-11-04T13:35:02.218Z,18.13
2022-11-04T13:37:33.938Z,18.58
2022-11-04T13:40:13.299Z,18.95
2022-11-04T13:43:29.463Z,18.60
2022-11-04T13:45:57.183Z,16.80
2022-11-04T13:48:26.699Z,17.52
2022-11-04T13:51:13.196Z,19.67
2022-11-04T13:53:52.495Z,20.55
2022-11-04T13:56:40.599Z,17.75
2022-11-04T13:59:30.950Z,20.38
2022-11-04T14:02:25.549Z,21.40
2022-11-04T14:04:52.569Z,28.75
2022-11-04T14:07:19.393Z,24.23
2022-11-04T14:09:53.764Z,21.58
2022-11-04T14:12:29.987Z,26.30
2022-11-04T14:15:09.814Z,22.10
2022-11-04T14:17:36.429Z,24.83
2022-11-04T14:20:08.521Z,25.83
2022-11-04T14:22:44.267Z,27.30
2022-11-04T14:25:31.758Z,26.00
2022-11-04T14:28:09.413Z,29.48
2022-11-04T14:30:46.393Z,25.95
2022-11-04T14:33:38.020Z,20.65
2022-11-04T14:36:25.689Z,22.33
2022-11-04T14:38:56.115Z,22.33
2022-11-04T14:41:25.443Z,18.52
2022-11-04T14:43:54.145Z,24.70
2022-11-04T14:46:28.691Z,21.85
2022-11-04T14:49:00.957Z,20.80
2022-11-04T14:51:34.120Z,25.88
2022-11-04T14:54:08.254Z,20.83
2022-11-04T14:56:35.044Z,21.17
2022-11-04T14:59:06.981Z,23.80
2022-11-04T15:01:43.170Z,32.17
2022-11-04T15:04:26.489Z,29.02
2022-11-04T15:07:01.876Z,21.33
2022-11-04T15:09:35.285Z,20.58
2022-11-04T15:12:31.018Z,21.25
2022-11-04T15:14:59.392Z,22.08
2022-11-04T15:17:30.523Z,21.35
2022-11-04T15:20:00.739Z,22.02
2022-11-04T15:24:56.760Z,23.27
2022-11-04T15:27:28.908Z,26.38
2022-11-04T15:29:58.248Z,24.85
2022-11-04T15:32:25.624Z,24.57
2022-11-04T15:34:54.266Z,26.23
2022-11-04T15:37:23.589Z,21.67
2022-11-04T15:39:53.013Z,22.00
2022-11-04T15:42:39.985Z,21.90
2022-11-04T15:45:22.185Z,29.98
2022-11-04T15:47:49.823Z,29.45
2022-11-04T15:50:23.318Z,31.50
2022-11-04T15:52:56.672Z,30.40
2022-11-04T15:55:26.334Z,28.38
2022-11-04T15:57:55.259Z,25.35
2022-11-04T16:00:24.952Z,29.38
2022-11-04T16:02:55.166Z,28.90
2022-11-04T16:07:59.426Z,30.52
2022-11-04T16:10:37.121Z,28.88
2022-11-04T16:13:22.101Z,29.67
2022-11-04T16:15:51.760Z,28.55
2022-11-04T16:18:40.508Z,32.70
2022-11-04T16:21:25.217Z,31.17
2022-11-04T16:24:01.390Z,33.92
2022-11-04T16:26:32.047Z,27.35
2022-11-04T16:29:01.789Z,30.77
2022-11-04T16:31:34.238Z,29.63
2022-11-04T16:34:01.536Z,31.10
2022-11-04T16:36:34.077Z,29.85
2022-11-04T16:39:04.594Z,29.15
2022-11-04T16:41:35.562Z,30.30
2022-11-04T16:44:04.042Z,31.00
2022-11-04T16:46:33.594Z,31.50
2022-11-04T16:49:00.944Z,28.38
2022-11-04T16:51:27.600Z,30.10
2022-11-04T16:53:54.634Z,30.38
2022-11-04T16:56:24.786Z,36.50
2022-11-04T16:58:52.186Z,35.38
2022-11-04T17:01:19.748Z,37.10
2022-11-04T17:03:46.601Z,29.98
2022-11-04T17:06:14.952Z,31.35
2022-11-04T17:08:42.122Z,33.15
2022-11-04T17:11:10.198Z,33.33
2022-11-04T17:13:37.432Z,32.70
2022-11-04T17:16:06.044Z,38.75
2022-11-04T17:18:33.956Z,37.63
2022-11-04T17:21:06.234Z,41.65
2022-11-04T17:23:32.950Z,42.78
2022-11-04T17:25:59.566Z,40.10
2022-11-04T17:28:27.098Z,45.00
2022-11-04T17:30:53.940Z,42.63
2022-11-04T17:33:20.705Z,39.83
2022-11-04T17:35:49.950Z,60.22
2022-11-04T17:38:17.960Z,40.08
2022-11-04T17:41:03.808Z,43.28
2022-11-04T17:43:49.338Z,35.53
2022-11-04T17:46:35.011Z,35.63
2022-11-04T17:49:03.730Z,32.08
2022-11-04T17:51:31.226Z,34.95
2022-11-04T17:53:57.856Z,34.83
2022-11-04T17:56:25.180Z,37.83
2022-11-04T17:58:53.448Z,36.75
2022-11-04T18:01:23.064Z,32.17
2022-11-04T18:03:52.346Z,33.00
2022-11-04T18:06:22.574Z,34.20
2022-11-04T18:11:36.079Z,40.10
2022-11-04T18:14:02.828Z,33.55
2022-11-04T18:16:29.736Z,32.75
2022-11-04T18:18:58.875Z,30.65
2022-11-04T18:21:26.160Z,30.83
2022-11-04T18:23:54.857Z,38.35
2022-11-04T18:26:22.149Z,32.05
2022-11-04T18:28:48.848Z,30.98
2022-11-04T18:31:24.473Z,29.67
2022-11-04T18:33:51.529Z,33.72
2022-11-04T18:36:18.158Z,30.00
2022-11-04T18:38:45.368Z,28.52
2022-11-04T18:41:12.025Z,29.40
2022-11-04T18:43:38.610Z,27.73
2022-11-04T18:46:10.356Z,27.00
2022-11-04T18:48:37.955Z,30.02
2022-11-04T18:51:06.072Z,28.85
2022-11-04T18:53:32.725Z,25.85
2022-11-04T18:56:10.954Z,24.77
2022-11-04T18:58:39.177Z,27.83
2022-11-04T19:01:12.096Z,29.48
2022-11-04T19:03:39.401Z,29.50
2022-11-04T19:06:08.244Z,29.23
2022-11-04T19:08:35.854Z,30.92
2022-11-04T19:11:13.665Z,28.70
2022-11-04T19:13:40.567Z,27.88
2022-11-04T19:16:09.348Z,26.35
2022-11-04T19:18:36.597Z,27.60
2022-11-04T19:21:08.745Z,30.17
2022-11-04T19:23:35.888Z,28.15
2022-11-04T19:26:15.733Z,27.88
2022-11-04T19:28:48.192Z,29.08
2022-11-04T19:31:19.360Z,29.35
2022-11-04T19:36:37.600Z,27.60
2022-11-04T19:39:05.011Z,28.15
2022-11-04T19:41:50.276Z,32.33
2022-11-04T19:44:19.488Z,29.58
2022-11-04T19:46:46.936Z,29.85
2022-11-04T19:49:13.995Z,30.42
2022-11-04T19:51:40.884Z,32.83
2022-11-04T19:54:07.814Z,30.55
2022-11-04T19:56:37.240Z,30.17
2022-11-04T19:59:06.464Z,24.90
2022-11-04T20:01:35.021Z,32.95
2022-11-04T20:04:02.977Z,27.90
2022-11-04T20:06:30.845Z,29.48
2022-11-04T20:08:57.846Z,29.20
2022-11-04T20:11:24.441Z,33.25
2022-11-04T20:13:51.857Z,30.52
2022-11-04T20:16:26.744Z,30.33
2022-11-04T20:19:00.490Z,28.90
2022-11-04T20:21:31.396Z,31.48
2022-11-04T20:24:00.333Z,30.27
2022-11-04T20:26:28.976Z,33.72
2022-11-04T20:28:58.297Z,35.05
2022-11-04T20:31:27.353Z,32.67
2022-11-04T20:33:55.605Z,37.38
2022-11-04T20:36:24.858Z,32.10
2022-11-04T20:39:03.427Z,27.95
2022-11-04T20:41:30.538Z,33.67
2022-11-04T20:43:57.279Z,29.20
2022-11-04T20:46:27.068Z,33.00
2022-11-04T20:48:54.874Z,28.63
2022-11-04T20:51:24.167Z,29.67
2022-11-04T20:53:56.239Z,31.37
2022-11-04T20:56:27.952Z,34.00
2022-11-04T20:58:58.987Z,33.10
2022-11-04T21:01:29.547Z,31.60
2022-11-04T21:04:02.059Z,33.92
2022-11-04T21:06:29.199Z,29.90
2022-11-04T21:08:57.296Z,31.67
2022-11-04T21:11:27.551Z,35.65
2022-11-04T21:13:58.410Z,31.90
2022-11-04T21:16:25.088Z,36.65
2022-11-04T21:18:51.808Z,32.70
2022-11-04T21:21:18.416Z,33.78
2022-11-04T21:23:46.684Z,36.60
2022-11-04T21:26:21.081Z,34.58
2022-11-04T21:28:49.268Z,29.85
2022-11-04T21:31:15.888Z,37.60
2022-11-04T21:33:42.553Z,36.55
2022-11-04T21:36:11.580Z,36.30
2022-11-04T21:38:39.088Z,35.10
2022-11-04T21:41:08.579Z,36.70
2022-11-04T21:43:35.603Z,35.40
2022-11-04T21:46:11.330Z,35.97
2022-11-04T21:48:38.198Z,35.38
2022-11-04T21:51:11.177Z,35.70
2022-11-04T21:53:38.066Z,31.63
2022-11-04T21:56:11.734Z,37.55
2022-11-04T21:58:38.424Z,43.80
2022-11-04T22:01:07.344Z,41.30
2022-11-04T22:03:34.718Z,44.05
2022-11-04T22:06:03.887Z,40.17
2022-11-04T22:08:31.621Z,43.47
2022-11-04T22:11:06.323Z,40.92
2022-11-04T22:13:33.033Z,35.38
2022-11-04T22:16:00.501Z,38.35
2022-11-04T22:18:29.788Z,36.13
2022-11-04T22:20:57.384Z,37.80
2022-11-04T22:23:24.087Z,37.88
2022-11-04T22:25:50.810Z,36.90
2022-11-04T22:28:17.646Z,39.35
2022-11-04T22:30:44.295Z,36.58
2022-11-04T22:33:11.254Z,37.10
2022-11-04T22:35:38.139Z,33.55
2022-11-04T22:38:04.948Z,37.80
2022-11-04T22:40:31.628Z,41.45
2022-11-04T22:42:58.314Z,35.83
2022-11-04T22:45:25.186Z,33.67
2022-11-04T22:47:51.802Z,35.92
2022-11-04T22:50:18.608Z,37.95
2022-11-04T22:52:45.573Z,37.45
2022-11-04T22:55:13.737Z,31.23
2022-11-04T22:57:41.109Z,34.40
2022-11-04T23:00:09.486Z,36.42
2022-11-04T23:02:37.290Z,36.92
2022-11-04T23:05:04.526Z,41.33
2022-11-04T23:07:31.151Z,35.03
2022-11-04T23:10:16.202Z,36.88
2022-11-04T23:13:01.503Z,30.42
2022-11-04T23:15:47.127Z,33.88
2022-11-04T23:18:33.063Z,30.13
2022-11-04T23:21:19.089Z,35.78
2022-11-04T23:24:04.513Z,32.70
2022-11-04T23:26:31.632Z,34.35
2022-11-04T23:29:16.724Z,32.63
2022-11-04T23:31:43.365Z,35.17
2022-11-04T23:34:28.509Z,29.20
2022-11-04T23:37:13.628Z,29.17
2022-11-04T23:39:48.649Z,30.23
2022-11-04T23:42:17.852Z,30.15
2022-11-04T23:45:05.060Z,29.23
2022-11-04T23:47:55.701Z,31.92
2022-11-04T23:50:42.043Z,30.00
2022-11-04T23:53:31.454Z,30.83
2022-11-04T23:56:16.788Z,30.50
2022-11-04T23:59:02.748Z,28.98
